createdAt,value
2017-10-02T00:02:22.792Z,11.70
2017-10-02T00:04:53.061Z,11.70
2017-10-02T00:07:22.736Z,11.70
2017-10-02T00:09:52.446Z,11.70
2017-10-02T00:12:22.126Z,11.70
2017-10-02T00:14:52.413Z,11.60
2017-10-02T00:17:22.103Z,11.60
2017-10-02T00:19:51.794Z,11.60
2017-10-02T00:22:22.270Z,11.60
2017-10-02T00:24:51.947Z,11.60
2017-10-02T00:27:21.695Z,11.60
2017-10-02T00:29:51.366Z,11.60
2017-10-02T00:32:21.091Z,11.60
2017-10-02T00:34:50.775Z,11.60
2017-10-02T00:37:21.264Z,11.50
2017-10-02T00:39:50.931Z,11.50
2017-10-02T00:42:20.744Z,11.50
2017-10-02T00:44:50.223Z,11.50
2017-10-02T00:47:20.685Z,11.40
2017-10-02T00:49:50.368Z,11.40
2017-10-02T00:52:19.393Z,11.40
2017-10-02T00:54:48.522Z,11.40
2017-10-02T00:57:18.008Z,11.40
2017-10-02T00:59:47.197Z,11.40
2017-10-02T01:02:16.892Z,11.30
2017-10-02T01:04:46.606Z,11.40
2017-10-02T01:07:16.084Z,11.30
2017-10-02T01:09:46.577Z,11.30
2017-10-02T01:12:16.245Z,11.30
2017-10-02T01:14:45.611Z,11.30
2017-10-02T01:17:16.057Z,11.30
2017-10-02T01:19:45.778Z,11.30
2017-10-02T01:22:15.441Z,11.30
2017-10-02T01:24:45.144Z,11.30
2017-10-02T01:27:14.931Z,11.30
2017-10-02T01:29:44.435Z,11.40
2017-10-02T01:32:14.103Z,11.30
2017-10-02T01:34:44.572Z,11.30
2017-10-02T01:37:14.237Z,11.30
2017-10-02T01:39:44.715Z,11.30
2017-10-02T01:42:14.545Z,11.20
2017-10-02T01:44:44.235Z,11.20
2017-10-02T01:47:14.153Z,11.20
2017-10-02T01:49:43.831Z,11.20
2017-10-02T01:52:13.539Z,11.30
2017-10-02T01:54:43.228Z,11.30
2017-10-02T01:57:12.977Z,11.20
2017-10-02T01:59:42.654Z,11.20
2017-10-02T02:02:13.347Z,11.20
2017-10-02T02:04:43.030Z,11.20
2017-10-02T02:07:12.737Z,11.30
2017-10-02T02:09:42.443Z,11.20
2017-10-02T02:12:12.400Z,11.20
2017-10-02T02:14:42.071Z,11.20
2017-10-02T02:17:11.578Z,11.30
2017-10-02T02:19:41.252Z,11.30
2017-10-02T02:22:11.226Z,11.20
2017-10-02T02:24:40.905Z,11.20
2017-10-02T02:27:10.638Z,11.20
2017-10-02T02:29:40.306Z,11.20
2017-10-02T02:32:10.778Z,11.10
2017-10-02T02:34:40.307Z,11.10
2017-10-02T02:37:09.982Z,11.10
2017-10-02T02:39:39.719Z,11.10
2017-10-02T02:42:09.420Z,11.00
2017-10-02T02:44:39.097Z,11.00
2017-10-02T02:47:08.827Z,11.00
2017-10-02T02:49:38.500Z,11.00
2017-10-02T02:52:08.975Z,10.90
2017-10-02T02:54:38.695Z,10.90
2017-10-02T02:57:08.369Z,10.90
2017-10-02T02:59:38.088Z,10.90
2017-10-02T03:02:07.771Z,10.90
2017-10-02T03:04:38.270Z,10.90
2017-10-02T03:07:07.937Z,10.80
2017-10-02T03:09:37.654Z,10.90
2017-10-02T03:12:07.400Z,10.80
2017-10-02T03:14:37.113Z,10.80
2017-10-02T03:17:06.789Z,10.80
2017-10-02T03:19:36.310Z,10.80
2017-10-02T03:22:05.995Z,10.70
2017-10-02T03:24:35.688Z,10.70
2017-10-02T03:27:05.418Z,10.70
2017-10-02T03:29:35.090Z,10.60
2017-10-02T03:32:05.371Z,10.60
2017-10-02T03:34:35.102Z,10.60
2017-10-02T03:37:05.563Z,10.60
2017-10-02T03:39:36.061Z,10.60
2017-10-02T03:42:05.738Z,10.50
2017-10-02T03:44:35.439Z,10.60
2017-10-02T03:47:05.150Z,10.50
2017-10-02T03:49:34.837Z,10.50
2017-10-02T03:52:04.561Z,10.50
2017-10-02T03:54:34.254Z,10.60
2017-10-02T03:57:04.727Z,10.50
2017-10-02T03:59:34.446Z,10.50
2017-10-02T04:02:03.796Z,10.50
2017-10-02T04:04:34.250Z,10.50
2017-10-02T04:07:03.994Z,10.50
2017-10-02T04:09:33.492Z,10.50
2017-10-02T04:12:03.187Z,10.50
2017-10-02T04:14:32.885Z,10.50
2017-10-02T04:17:02.592Z,10.50
2017-10-02T04:19:32.439Z,10.50
2017-10-02T04:22:02.119Z,10.50
2017-10-02T04:24:31.934Z,10.50
2017-10-02T04:27:01.620Z,10.50
2017-10-02T04:29:32.085Z,10.50
2017-10-02T04:32:02.218Z,10.50
2017-10-02T04:34:31.897Z,10.50
2017-10-02T04:37:01.625Z,10.50
2017-10-02T04:39:30.944Z,10.50
2017-10-02T04:42:01.174Z,10.50
2017-10-02T04:44:30.864Z,10.50
2017-10-02T04:47:00.591Z,10.50
2017-10-02T04:49:30.276Z,10.50
2017-10-02T04:51:59.970Z,10.50
2017-10-02T04:54:29.702Z,10.40
2017-10-02T04:56:59.383Z,10.40
2017-10-02T04:59:29.095Z,10.40
2017-10-02T05:01:58.810Z,10.40
2017-10-02T05:04:28.499Z,10.40
2017-10-02T05:06:58.989Z,10.40
2017-10-02T05:09:28.680Z,10.40
2017-10-02T05:11:58.408Z,10.40
2017-10-02T05:14:27.887Z,10.30
2017-10-02T05:16:57.626Z,10.40
2017-10-02T05:19:27.334Z,10.40
2017-10-02T05:21:57.050Z,10.40
2017-10-02T05:24:27.526Z,10.40
2017-10-02T05:26:57.231Z,10.40
2017-10-02T05:29:27.720Z,10.50
2017-10-02T05:31:57.389Z,10.40
2017-10-02T05:34:27.102Z,10.50
2017-10-02T05:36:56.786Z,10.50
2017-10-02T05:39:27.395Z,10.50
2017-10-02T05:41:57.869Z,10.50
2017-10-02T05:44:27.586Z,10.50
2017-10-02T05:46:57.257Z,10.60
2017-10-02T05:49:27.727Z,10.70
2017-10-02T05:51:57.435Z,10.70
2017-10-02T05:54:27.106Z,10.70
2017-10-02T05:56:57.586Z,10.70
2017-10-02T05:59:27.256Z,10.70
2017-10-02T06:01:57.012Z,10.80
2017-10-02T06:04:26.706Z,10.80
2017-10-02T06:06:56.430Z,10.80
2017-10-02T06:09:26.115Z,10.80
2017-10-02T06:11:55.834Z,10.80
2017-10-02T06:14:25.528Z,10.90
2017-10-02T06:16:55.264Z,10.90
2017-10-02T06:19:24.939Z,10.90
2017-10-02T06:21:54.662Z,11.00
2017-10-02T06:24:23.983Z,11.10
2017-10-02T06:26:53.708Z,11.10
2017-10-02T06:29:23.384Z,11.10
2017-10-02T06:31:53.081Z,11.20
2017-10-02T06:34:22.761Z,11.20
2017-10-02T06:36:52.480Z,11.30
2017-10-02T06:39:22.145Z,11.30
2017-10-02T06:41:52.165Z,11.40
2017-10-02T06:44:21.841Z,11.50
2017-10-02T06:46:51.555Z,11.50
2017-10-02T06:49:21.295Z,11.60
2017-10-02T06:51:50.996Z,11.70
2017-10-02T06:54:20.725Z,11.70
2017-10-02T06:56:50.523Z,11.70
2017-10-02T06:59:20.196Z,11.90
2017-10-02T07:01:50.699Z,12.00
2017-10-02T07:04:20.367Z,12.00
2017-10-02T07:06:50.123Z,12.20
2017-10-02T07:09:19.802Z,12.30
2017-10-02T07:11:49.511Z,12.40
2017-10-02T07:14:19.205Z,12.40
2017-10-02T07:16:48.942Z,12.50
2017-10-02T07:19:18.620Z,12.50
2017-10-02T07:21:48.334Z,12.50
2017-10-02T07:24:17.827Z,12.50
2017-10-02T07:26:47.324Z,12.60
2017-10-02T07:29:17.033Z,12.70
2017-10-02T07:31:46.716Z,12.70
2017-10-02T07:34:17.205Z,12.70
2017-10-02T07:36:46.881Z,12.70
2017-10-02T07:39:16.605Z,12.80
2017-10-02T07:41:46.274Z,12.80
2017-10-02T07:44:16.006Z,12.90
2017-10-02T07:46:45.722Z,12.90
2017-10-02T07:49:15.423Z,12.90
2017-10-02T07:51:45.875Z,13.00
2017-10-02T07:54:15.582Z,12.90
2017-10-02T07:56:45.269Z,13.00
2017-10-02T07:59:15.762Z,13.10
2017-10-02T08:01:45.436Z,13.00
2017-10-02T08:04:15.167Z,13.10
2017-10-02T08:06:44.856Z,13.20
2017-10-02T08:09:14.579Z,13.30
2017-10-02T08:11:44.255Z,13.30
2017-10-02T08:14:14.739Z,13.70
2017-10-02T08:16:44.434Z,13.70
2017-10-02T08:19:14.152Z,13.80
2017-10-02T08:21:43.847Z,13.90
2017-10-02T08:24:13.547Z,14.00
2017-10-02T08:26:43.222Z,14.10
2017-10-02T08:29:13.702Z,14.20
2017-10-02T08:31:43.040Z,14.10
2017-10-02T08:34:12.754Z,14.20
2017-10-02T08:36:43.202Z,14.20
2017-10-02T08:39:13.491Z,14.20
2017-10-02T08:41:43.155Z,14.20
2017-10-02T08:44:12.651Z,14.30
2017-10-02T08:46:42.319Z,14.40
2017-10-02T08:49:11.837Z,14.50
2017-10-02T08:51:41.508Z,14.70
2017-10-02T08:54:11.209Z,15.00
2017-10-02T08:56:41.102Z,15.10
2017-10-02T08:59:11.533Z,15.20
2017-10-02T09:01:41.262Z,15.30
2017-10-02T09:04:10.930Z,15.30
2017-10-02T09:06:41.404Z,15.20
2017-10-02T09:09:11.103Z,15.20
2017-10-02T09:11:40.791Z,15.20
2017-10-02T09:14:10.281Z,15.00
2017-10-02T09:16:39.963Z,15.10
2017-10-02T09:19:09.651Z,15.10
2017-10-02T09:21:39.465Z,15.10
2017-10-02T09:24:09.580Z,15.10
2017-10-02T09:26:39.330Z,15.20
2017-10-02T09:29:08.794Z,15.20
2017-10-02T09:31:38.674Z,15.20
2017-10-02T09:34:09.110Z,15.50
2017-10-02T09:36:38.844Z,15.50
2017-10-02T09:39:08.526Z,15.60
2017-10-02T09:41:38.986Z,15.90
2017-10-02T09:44:08.697Z,15.90
2017-10-02T09:46:38.373Z,16.00
2017-10-02T09:49:08.971Z,16.20
2017-10-02T09:51:38.625Z,16.20
2017-10-02T09:54:09.116Z,16.40
2017-10-02T09:56:38.854Z,16.40
2017-10-02T09:59:08.258Z,16.40
2017-10-02T10:01:37.661Z,16.40
2017-10-02T10:04:08.134Z,16.60
2017-10-02T10:06:37.799Z,16.60
2017-10-02T10:09:08.065Z,16.50
2017-10-02T10:11:37.724Z,16.50
2017-10-02T10:14:08.185Z,16.50
2017-10-02T10:16:37.655Z,16.50
2017-10-02T10:19:08.162Z,16.40
2017-10-02T10:21:37.841Z,16.40
2017-10-02T10:24:07.454Z,16.50
2017-10-02T10:26:37.721Z,16.50
2017-10-02T10:29:07.140Z,16.50
2017-10-02T10:31:37.599Z,16.40
2017-10-02T10:34:06.996Z,16.40
2017-10-02T10:36:36.730Z,16.40
2017-10-02T10:39:06.898Z,16.40
2017-10-02T10:41:37.358Z,16.40
2017-10-02T10:44:07.030Z,16.40
2017-10-02T10:46:36.463Z,16.40
2017-10-02T10:49:05.874Z,16.40
2017-10-02T10:51:35.604Z,16.40
2017-10-02T10:54:04.995Z,16.40
2017-10-02T10:56:34.392Z,16.40
2017-10-02T10:59:04.071Z,16.40
2017-10-02T11:01:33.294Z,16.40
2017-10-02T11:04:02.957Z,16.30
2017-10-02T11:06:33.422Z,16.20
2017-10-02T11:09:02.834Z,16.20
2017-10-02T11:11:32.318Z,16.20
2017-10-02T11:14:02.074Z,16.10
2017-10-02T11:16:32.045Z,15.90
2017-10-02T11:19:02.506Z,15.80
2017-10-02T11:21:32.005Z,15.80
2017-10-02T11:24:01.733Z,15.70
2017-10-02T11:26:31.407Z,15.50
2017-10-02T11:29:01.122Z,15.20
2017-10-02T11:31:30.786Z,15.00
2017-10-02T11:34:00.511Z,14.70
2017-10-02T11:36:30.749Z,14.20
2017-10-02T11:39:01.230Z,14.10
2017-10-02T11:41:30.702Z,14.10
2017-10-02T11:44:00.418Z,14.00
2017-10-02T11:46:30.085Z,13.90
2017-10-02T11:49:00.568Z,13.80
2017-10-02T11:51:30.372Z,13.80
2017-10-02T11:54:00.096Z,13.80
2017-10-02T11:56:29.789Z,13.70
2017-10-02T11:59:00.664Z,13.70
2017-10-02T12:01:30.341Z,13.60
2017-10-02T12:04:00.067Z,13.60
2017-10-02T12:06:29.747Z,13.60
2017-10-02T12:08:59.284Z,13.50
2017-10-02T12:11:28.779Z,13.50
2017-10-02T12:13:58.271Z,13.50
2017-10-02T12:16:28.212Z,13.60
2017-10-02T12:18:57.917Z,13.60
2017-10-02T12:21:27.624Z,13.60
2017-10-02T12:23:57.307Z,13.60
2017-10-02T12:26:27.027Z,13.60
2017-10-02T12:28:56.741Z,13.60
2017-10-02T12:31:26.424Z,13.60
2017-10-02T12:33:56.386Z,13.60
2017-10-02T12:36:26.071Z,13.60
2017-10-02T12:38:56.123Z,13.60
2017-10-02T12:41:25.823Z,13.60
2017-10-02T12:43:55.527Z,13.60
2017-10-02T12:46:25.270Z,13.70
2017-10-02T12:48:54.944Z,13.70
2017-10-02T12:51:24.674Z,13.70
2017-10-02T12:53:54.370Z,13.70
2017-10-02T12:56:24.342Z,13.70
2017-10-02T12:58:54.792Z,13.70
2017-10-02T13:01:24.525Z,13.70
2017-10-02T13:03:54.008Z,13.70
2017-10-02T13:06:23.740Z,13.70
2017-10-02T13:08:53.288Z,13.70
2017-10-02T13:11:23.731Z,13.70
2017-10-02T13:13:54.218Z,13.70
2017-10-02T13:16:23.898Z,13.70
2017-10-02T13:18:53.834Z,13.70
2017-10-02T13:21:23.502Z,13.70
2017-10-02T13:23:53.218Z,13.70
2017-10-02T13:26:22.899Z,13.70
2017-10-02T13:28:53.399Z,13.70
2017-10-02T13:31:23.069Z,13.70
2017-10-02T13:33:52.791Z,13.70
2017-10-02T13:36:22.474Z,13.70
2017-10-02T13:38:52.186Z,13.70
2017-10-02T13:41:21.869Z,13.70
2017-10-02T13:43:51.594Z,13.70
2017-10-02T13:46:22.040Z,13.70
2017-10-02T13:48:51.831Z,13.70
2017-10-02T13:51:22.278Z,13.70
2017-10-02T13:53:52.010Z,13.70
2017-10-02T13:56:21.699Z,13.60
2017-10-02T13:58:51.435Z,13.60
2017-10-02T14:01:21.130Z,13.70
2017-10-02T14:03:50.643Z,13.70
2017-10-02T14:06:20.193Z,13.60
2017-10-02T14:08:49.690Z,13.70
2017-10-02T14:11:19.179Z,13.70
2017-10-02T14:13:48.715Z,13.60
2017-10-02T14:16:18.232Z,13.60
2017-10-02T14:18:48.222Z,13.60
2017-10-02T14:21:17.907Z,13.60
2017-10-02T14:23:47.630Z,13.60
2017-10-02T14:26:17.301Z,13.60
2017-10-02T14:28:47.046Z,13.60
2017-10-02T14:31:16.575Z,13.60
2017-10-02T14:33:46.242Z,13.60
2017-10-02T14:36:15.767Z,13.60
2017-10-02T14:38:45.488Z,13.60
2017-10-02T14:41:15.184Z,13.60
2017-10-02T14:43:44.910Z,13.60
2017-10-02T14:46:14.672Z,13.60
2017-10-02T14:48:45.355Z,13.60
2017-10-02T14:51:15.014Z,13.60
2017-10-02T14:53:45.486Z,13.60
2017-10-02T14:56:15.280Z,13.60
2017-10-02T14:58:45.034Z,13.60
2017-10-02T15:01:14.704Z,13.60
2017-10-02T15:03:44.402Z,13.60
2017-10-02T15:06:14.075Z,13.60
2017-10-02T15:08:43.764Z,13.60
2017-10-02T15:11:13.475Z,13.50
2017-10-02T15:13:43.170Z,13.60
2017-10-02T15:16:13.103Z,13.60
2017-10-02T15:18:42.779Z,13.50
2017-10-02T15:21:12.555Z,13.50
2017-10-02T15:23:42.217Z,13.50
2017-10-02T15:26:12.135Z,13.50
2017-10-02T15:28:41.807Z,13.50
2017-10-02T15:31:12.493Z,13.50
2017-10-02T15:33:42.151Z,13.50
2017-10-02T15:36:12.119Z,13.50
2017-10-02T15:38:42.562Z,13.50
2017-10-02T15:41:12.290Z,13.50
2017-10-02T15:43:42.776Z,13.50
2017-10-02T15:46:12.519Z,13.50
2017-10-02T15:48:42.228Z,13.50
2017-10-02T15:51:12.678Z,13.50
2017-10-02T15:53:43.206Z,13.50
2017-10-02T15:56:13.647Z,13.50
2017-10-02T15:58:43.360Z,13.50
2017-10-02T16:01:13.038Z,13.50
2017-10-02T16:03:43.515Z,13.50
2017-10-02T16:06:13.208Z,13.50
2017-10-02T16:08:43.171Z,13.50
2017-10-02T16:11:12.837Z,13.50
2017-10-02T16:13:42.543Z,13.50
2017-10-02T16:16:12.234Z,13.50
2017-10-02T16:18:42.804Z,13.60
2017-10-02T16:21:12.816Z,13.50
2017-10-02T16:23:42.622Z,13.60
2017-10-02T16:26:12.307Z,13.60
2017-10-02T16:28:42.025Z,13.60
2017-10-02T16:31:12.482Z,13.60
2017-10-02T16:33:42.193Z,13.60
2017-10-02T16:36:11.873Z,13.60
2017-10-02T16:38:41.582Z,13.60
2017-10-02T16:41:11.275Z,13.60
2017-10-02T16:43:41.779Z,13.60
2017-10-02T16:46:11.518Z,13.50
2017-10-02T16:48:42.011Z,13.60
2017-10-02T16:51:11.714Z,13.60
2017-10-02T16:53:41.444Z,13.60
2017-10-02T16:56:11.156Z,13.60
2017-10-02T16:58:40.877Z,13.60
2017-10-02T17:01:11.336Z,13.60
2017-10-02T17:03:41.054Z,13.60
2017-10-02T17:06:10.741Z,13.60
2017-10-02T17:08:43.027Z,13.60
2017-10-02T17:11:12.565Z,13.60
2017-10-02T17:13:42.093Z,13.60
2017-10-02T17:16:12.442Z,13.60
2017-10-02T17:18:42.894Z,13.60
2017-10-02T17:21:12.967Z,13.60
2017-10-02T17:23:42.538Z,13.60
2017-10-02T17:26:12.300Z,13.60
2017-10-02T17:28:42.019Z,13.60
2017-10-02T17:31:12.727Z,13.60
2017-10-02T17:33:44.330Z,13.60
2017-10-02T17:36:14.046Z,13.60
2017-10-02T17:38:43.728Z,13.60
2017-10-02T17:41:14.300Z,13.60
2017-10-02T17:43:44.024Z,13.60
2017-10-02T17:46:13.694Z,13.60
2017-10-02T17:48:43.440Z,13.70
2017-10-02T17:51:12.768Z,13.60
2017-10-02T17:53:42.510Z,13.60
2017-10-02T17:56:12.206Z,13.60
2017-10-02T17:58:41.949Z,13.60
2017-10-02T18:01:11.625Z,13.60
2017-10-02T18:03:42.144Z,13.60
2017-10-02T18:06:11.845Z,13.60
2017-10-02T18:08:41.590Z,13.60
2017-10-02T18:11:12.623Z,13.60
2017-10-02T18:13:43.078Z,13.60
2017-10-02T18:16:13.038Z,13.60
2017-10-02T18:18:52.351Z,13.60
2017-10-02T18:21:22.946Z,13.60
2017-10-02T18:23:54.191Z,13.60
2017-10-02T18:26:28.923Z,13.50
2017-10-02T18:29:02.847Z,13.50
2017-10-02T18:31:32.752Z,13.50
2017-10-02T18:34:03.560Z,13.50
2017-10-02T18:36:45.566Z,13.50
2017-10-02T18:39:16.066Z,13.50
2017-10-02T18:41:45.858Z,13.50
2017-10-02T18:44:16.305Z,13.50
2017-10-02T18:46:47.590Z,13.50
2017-10-02T18:49:18.587Z,13.60
2017-10-02T18:51:48.367Z,13.60
2017-10-02T18:54:19.553Z,13.60
2017-10-02T18:56:49.282Z,13.60
2017-10-02T18:59:18.987Z,13.60
2017-10-02T19:01:48.749Z,13.60
2017-10-02T19:04:18.463Z,13.60
2017-10-02T19:06:48.156Z,13.60
2017-10-02T19:09:17.858Z,13.60
2017-10-02T19:11:47.632Z,13.60
2017-10-02T19:14:17.528Z,13.60
2017-10-02T19:16:47.210Z,13.60
2017-10-02T19:19:16.929Z,13.60
2017-10-02T19:21:47.014Z,13.60
2017-10-02T19:24:17.570Z,13.60
2017-10-02T19:26:47.290Z,13.60
2017-10-02T19:29:16.980Z,13.60
2017-10-02T19:31:46.695Z,13.60
2017-10-02T19:34:16.185Z,13.60
2017-10-02T19:36:46.873Z,13.60
2017-10-02T19:39:16.602Z,13.60
2017-10-02T19:41:46.390Z,13.60
2017-10-02T19:44:16.082Z,13.60
2017-10-02T19:46:45.812Z,13.60
2017-10-02T19:49:15.670Z,13.60
2017-10-02T19:51:45.735Z,13.60
2017-10-02T19:54:15.410Z,13.60
2017-10-02T19:56:45.138Z,13.60
2017-10-02T19:59:14.816Z,13.60
2017-10-02T20:01:45.357Z,13.60
2017-10-02T20:04:16.672Z,13.60
2017-10-02T20:06:46.413Z,13.60
2017-10-02T20:09:16.706Z,13.60
2017-10-02T20:11:47.535Z,13.60
2017-10-02T20:14:19.068Z,13.60
2017-10-02T20:16:49.482Z,13.60
2017-10-02T20:19:21.214Z,13.60
2017-10-02T20:21:51.237Z,13.60
2017-10-02T20:24:21.510Z,13.60
2017-10-02T20:26:51.246Z,13.60
2017-10-02T20:29:22.493Z,13.60
2017-10-02T20:31:52.232Z,13.60
2017-10-02T20:34:21.955Z,13.60
2017-10-02T20:36:51.479Z,13.60
2017-10-02T20:39:21.154Z,13.60
2017-10-02T20:41:52.161Z,13.70
2017-10-02T20:44:21.910Z,13.70
2017-10-02T20:46:51.721Z,13.60
2017-10-02T20:49:21.474Z,13.60
2017-10-02T20:51:51.214Z,13.70
2017-10-02T20:54:20.927Z,13.70
2017-10-02T20:56:50.650Z,13.70
2017-10-02T20:59:21.086Z,13.70
2017-10-02T21:01:51.610Z,13.70
2017-10-02T21:04:21.270Z,13.70
2017-10-02T21:06:51.011Z,13.70
2017-10-02T21:09:20.705Z,13.70
2017-10-02T21:11:50.463Z,13.70
2017-10-02T21:14:20.908Z,13.70
2017-10-02T21:16:50.841Z,13.80
2017-10-02T21:19:21.606Z,13.80
2017-10-02T21:21:51.042Z,13.70
2017-10-02T21:24:20.554Z,13.80
2017-10-02T21:26:50.331Z,13.80
2017-10-02T21:29:20.762Z,13.80
2017-10-02T21:31:50.463Z,13.80
2017-10-02T21:34:20.657Z,13.80
2017-10-02T21:36:50.873Z,13.80
2017-10-02T21:39:20.778Z,13.80
2017-10-02T21:41:50.552Z,13.80
2017-10-02T21:44:20.363Z,13.80
2017-10-02T21:46:52.357Z,13.80
2017-10-02T21:49:22.783Z,13.80
2017-10-02T21:51:53.554Z,13.80
2017-10-02T21:54:23.235Z,13.80
2017-10-02T21:56:52.936Z,13.80
2017-10-02T21:59:23.413Z,13.70
2017-10-02T22:01:53.683Z,13.80
2017-10-02T22:04:23.533Z,13.70
2017-10-02T22:06:54.679Z,13.80
2017-10-02T22:09:24.849Z,13.70
2017-10-02T22:11:56.850Z,13.80
2017-10-02T22:14:26.941Z,13.80
2017-10-02T22:16:57.059Z,13.80
2017-10-02T22:19:28.187Z,13.80
2017-10-02T22:21:58.525Z,13.80
2017-10-02T22:24:29.342Z,13.80
2017-10-02T22:26:59.012Z,13.80
2017-10-02T22:29:29.346Z,13.80
2017-10-02T22:31:59.098Z,13.80
2017-10-02T22:34:29.368Z,13.80
2017-10-02T22:36:59.082Z,13.80
2017-10-02T22:39:28.750Z,13.80
2017-10-02T22:41:59.234Z,13.80
2017-10-02T22:44:28.906Z,13.80
2017-10-02T22:46:59.384Z,13.80
2017-10-02T22:49:29.272Z,13.70
2017-10-02T22:51:58.994Z,13.80
2017-10-02T22:54:28.712Z,13.70
2017-10-02T22:56:58.386Z,13.70
2017-10-02T22:59:28.326Z,13.70
2017-10-02T23:01:58.006Z,13.70
2017-10-02T23:04:27.731Z,13.60
2017-10-02T23:06:57.212Z,13.60
2017-10-02T23:09:27.732Z,13.70
2017-10-02T23:11:58.160Z,13.70
2017-10-02T23:14:27.709Z,13.60
2017-10-02T23:16:57.367Z,13.70
2017-10-02T23:19:30.062Z,13.60
2017-10-02T23:21:59.746Z,13.70
2017-10-02T23:24:29.451Z,13.70
2017-10-02T23:26:59.145Z,13.70
2017-10-02T23:29:28.869Z,13.70
2017-10-02T23:31:58.542Z,13.70
2017-10-02T23:34:28.241Z,13.70
2017-10-02T23:36:57.950Z,13.70
2017-10-02T23:39:27.658Z,13.70
2017-10-02T23:41:57.384Z,13.70
2017-10-02T23:44:27.054Z,13.70
2017-10-02T23:46:57.560Z,13.70
2017-10-02T23:49:27.227Z,13.70
2017-10-02T23:51:56.910Z,13.70
2017-10-02T23:54:27.419Z,13.80
2017-10-02T23:56:57.086Z,13.80
2017-10-02T23:59:26.805Z,13.80
